Date,TemperatureHighF,TemperatureAvgF,TemperatureLowF,DewpointHighF,DewpointAvgF,DewpointLowF,HumidityHigh,HumidityAvg,HumidityLow,PressureMaxIn,PressureMinIn,WindSpeedMaxMPH,WindSpeedAvgMPH,GustSpeedMaxMPH,PrecipitationSumIn
2013-3-8,54,51,50,40,39,38,66,62,56,30.04,29.96,11,4,11,0.00
2013-3-9,59,53,48,54,46,38,92,78,65,29.96,29.58,12,3,12,0.69
2013-3-10,53,41,29,50,37,24,91,87,80,29.90,29.54,11,3,11,0.00
2013-3-11,41,31,27,26,23,20,81,73,53,30.01,29.86,8,2,8,0.00
2013-3-12,49,36,27,32,24,20,84,65,40,30.33,30.00,12,2,12,0.01
2013-3-13,51,34,22,29,22,16,79,62,42,30.47,30.30,7,1,7,0.00
2013-3-14,74,51,32,46,34,23,70,54,34,30.30,30.03,13,3,13,0.00
2013-3-15,84,57,33,51,40,27,87,57,26,30.08,29.64,14,3,14,0.00
2013-3-16,60,46,39,45,35,28,76,65,57,30.06,29.68,11,4,11,0.00
2013-3-17,39,36,34,32,29,26,85,75,63,30.06,29.75,12,4,12,0.12
2013-3-18,55,43,34,36,29,18,88,62,32,30.06,29.74,8,3,8,0.00
2013-3-19,42,35,25,35,27,15,82,73,55,30.24,30.04,8,1,8,0.02
2013-3-20,42,32,19,29,15,6,87,52,30,30.39,30.11,11,3,11,0.00
2013-3-21,29,25,17,22,15,6,78,66,52,30.11,29.90,12,3,12,0.00
2013-3-22,32,30,28,27,25,22,83,81,78,29.99,29.93,7,2,7,0.02
2013-3-23,37,33,30,28,27,26,87,78,65,30.02,29.85,10,2,10,0.04
2013-3-24,32,28,22,27,23,15,90,81,72,30.07,29.81,8,3,8,0.09
2013-3-25,33,26,20,24,19,14,86,76,65,30.31,30.05,8,3,8,0.05
2013-3-26,40,28,11,25,18,6,85,66,52,30.40,30.27,7,1,7,0.50
2013-3-27,51,35,20,34,25,13,83,67,49,30.29,30.17,11,2,11,0.00
2013-3-28,66,48,30,43,34,23,81,61,43,30.20,30.09,8,1,8,0.00
2013-3-29,69,52,33,44,37,28,84,59,34,30.19,30.06,10,2,10,0.00
2013-3-30,68,56,44,53,46,35,81,71,54,30.07,29.83,10,2,10,0.00
2013-3-31,63,52,37,44,37,26,86,60,30,29.98,29.90,12,2,12,0.00
2013-4-1,47,39,27,30,21,13,71,50,29,30.27,29.97,10,3,10,0.00
2013-4-2,51,36,24,24,19,13,70,51,32,30.32,30.22,9,2,9,0.00
2013-4-3,51,39,24,27,21,16,73,51,37,30.34,30.21,11,3,11,0.00
2013-4-4,65,45,32,32,26,18,68,48,28,30.22,30.04,8,2,8,0.00
2013-4-5,72,50,29,45,34,22,80,56,33,30.16,29.85,17,3,17,0.00
2013-4-6,76,62,49,50,42,36,61,49,29,29.85,29.64,20,6,20,0.00
2013-4-7,74,56,37,52,43,30,83,64,41,29.86,29.63,12,3,12,0.40
2013-4-8,74,60,48,63,54,44,92,80,66,29.74,29.66,13,3,13,0.51
2013-4-9,74,66,54,63,58,48,83,75,66,29.76,29.63,13,4,13,0.22
2013-4-10,52,41,36,47,37,33,90,88,83,29.93,29.73,14,3,14,1.13
2013-4-11,41,35,32,33,28,25,90,74,59,29.81,29.71,11,2,11,0.00
2013-4-12,54,40,29,34,28,23,80,64,43,30.02,29.76,11,2,11,0.00
2013-4-13,68,48,28,47,35,22,84,64,45,30.05,29.70,11,2,11,0.00
2013-4-14,73,61,52,52,46,35,69,59,46,29.71,29.47,22,6,22,0.03
2013-4-15,54,47,44,40,35,30,80,62,47,29.98,29.72,9,2,9,0.06
2013-4-16,47,43,40,34,31,29,67,61,53,30.13,29.99,14,4,14,0.00
2013-4-17,50,47,44,47,42,34,91,83,67,30.06,29.62,8,2,11,0.29
2013-4-18,45,39,35,42,34,25,90,84,66,29.92,29.56,13,4,13,0.23
2013-4-19,52,40,30,28,24,20,74,54,31,30.08,29.89,14,3,14,0.00
2013-4-20,60,42,24,36,28,18,81,58,39,30.22,30.08,10,3,10,0.00
2013-4-21,72,56,44,46,38,30,70,52,35,30.20,30.08,17,5,17,0.00
2013-4-22,66,56,43,46,42,34,81,60,47,30.12,29.89,11,4,11,0.01
2013-4-23,46,35,32,40,31,29,88,84,74,30.17,29.99,12,4,12,0.72
2013-4-24,59,40,27,33,28,22,87,63,32,30.25,30.14,16,3,16,0.01
2013-4-25,73,51,28,44,34,22,84,57,32,30.28,30.12,13,3,13,0.00
2013-4-26,58,50,47,48,43,35,86,75,54,30.21,30.12,17,4,17,0.37
2013-4-27,55,49,45,48,45,40,89,84,77,30.17,29.98,6,1,6,0.65
2013-4-28,81,56,34,58,46,31,93,71,41,29.99,29.76,13,3,13,0.00
2013-4-29,87,69,53,65,56,47,82,65,45,29.80,29.61,16,5,16,0.00
2013-4-30,87,71,57,58,53,46,69,54,34,29.81,29.63,17,6,17,0.00
2013-5-1,83,63,41,60,50,36,82,64,45,30.17,29.80,8,3,8,0.19
2013-5-2,41,36,32,36,32,29,89,87,82,30.38,30.17,11,4,11,0.87
2013-5-3,38,36,34,33,31,30,89,83,72,30.29,29.90,11,4,11,0.15
2013-5-4,49,41,32,42,36,29,91,84,72,30.00,29.82,4,2,4,0.17
2013-5-5,56,48,44,48,44,41,91,84,75,30.10,29.99,5,3,5,0.01
2013-5-6,74,55,48,57,48,42,88,78,55,30.09,30.00,5,2,5,0.00
2013-5-7,84,60,40,56,47,36,90,67,37,30.07,29.95,6,1,6,0.02
2013-5-8,79,64,49,61,54,43,89,71,50,29.99,29.87,8,2,8,0.12
2013-5-9,76,64,55,61,55,49,90,75,52,29.92,29.83,9,2,9,0.10
2013-5-10,70,57,48,52,48,41,88,74,47,30.04,29.91,9,2,9,0.00
2013-5-11,68,53,40,46,35,27,90,54,25,30.23,30.03,8,2,8,0.01
2013-5-12,73,50,30,41,32,24,79,53,28,30.26,30.11,5,1,5,0.00
2013-5-13,86,61,39,57,46,33,83,60,37,30.14,29.92,10,2,10,0.00
2013-5-14,96,75,60,56,51,46,74,47,22,29.92,29.78,11,4,11,0.00
2013-5-15,90,75,64,65,57,50,73,55,43,29.89,29.80,10,4,10,0.00
2013-5-16,86,70,57,65,58,51,86,67,46,29.88,29.78,9,2,9,0.00
2013-5-17,88,68,55,65,57,50,87,70,44,29.93,29.84,6,1,6,0.00
2013-5-18,87,72,54,70,62,49,89,72,56,29.91,29.72,9,3,9,0.00
2013-5-19,87,70,60,71,62,55,89,76,57,29.83,29.55,22,4,22,0.42
2013-5-20,90,69,58,70,61,54,89,76,48,29.75,29.60,12,3,12,0.00
2013-5-21,77,64,51,57,51,45,85,64,41,29.77,29.66,10,2,10,0.00
2013-5-22,69,60,50,52,48,44,81,67,53,29.94,29.73,10,2,10,0.00
2013-5-23,71,59,49,55,49,42,82,68,55,30.20,29.93,8,2,8,0.00
2013-5-24,77,60,41,55,46,36,91,63,41,30.30,30.10,12,3,12,0.00
2013-5-25,89,72,60,67,57,44,73,60,44,30.14,29.98,12,4,12,0.00
2013-5-26,90,76,64,70,64,57,84,68,49,30.03,29.86,17,4,17,0.00
2013-5-27,85,71,60,71,62,56,90,76,59,29.92,29.65,17,4,17,2.21
2013-5-28,80,73,69,71,66,63,84,77,71,29.80,29.63,12,3,12,0.03
2013-5-29,82,73,66,69,64,59,84,73,61,29.81,29.63,16,5,16,0.07
2013-5-30,84,65,60,69,60,56,90,82,59,29.75,29.60,15,3,15,1.56
2013-5-31,84,67,57,69,60,54,92,81,59,29.75,29.65,9,2,10,1.06
2013-6-1,69,64,58,61,54,50,89,72,54,29.98,29.67,11,2,11,0.01
2013-6-2,72,59,47,52,48,40,79,67,47,30.08,29.97,6,2,6,0.00
2013-6-3,82,61,41,58,49,36,89,67,44,30.06,29.87,12,2,12,0.00
2013-6-4,62,62,61,55,54,52,80,76,70,29.91,29.86,10,4,10,0.01
2013-6-10,84,83,82,62,60,59,47,46,46,29.85,29.84,1,1,1,0.00
2013-6-12,102,86,73,72,68,59,75,56,38,29.90,29.74,11,4,11,0.00
2013-6-13,75,66,60,60,54,51,74,65,55,30.04,29.91,4,2,4,0.00
2013-6-16,85,74,62,73,67,59,91,79,65,29.95,29.88,4,1,4,0.00
2013-6-17,86,72,68,72,66,63,89,81,60,29.98,29.89,8,1,8,0.09
2013-6-18,87,76,63,69,64,58,88,67,46,30.00,29.96,6,2,6,0.01
2013-6-19,95,75,58,72,64,54,90,69,44,30.02,29.92,7,2,7,0.00
2013-6-20,95,79,64,74,68,60,87,70,51,29.99,29.87,10,4,10,0.00
2013-6-21,78,76,75,68,68,67,77,74,73,29.95,29.93,6,4,6,0.00
2013-6-29,84,76,65,57,55,54,68,49,36,29.87,29.80,8,3,8,0.00
2013-6-30,82,70,56,58,55,50,81,61,43,30.02,29.87,7,2,7,0.00
2013-7-1,87,69,53,57,52,47,85,58,32,30.10,30.02,10,2,10,0.00
2013-7-2,90,70,51,60,52,45,85,57,32,30.12,30.03,4,1,4,0.00
2013-7-3,92,67,54,58,53,48,85,65,31,30.07,29.97,5,1,5,0.43
2013-7-4,94,71,53,65,57,48,89,65,35,30.03,29.92,4,1,4,0.01
2013-7-5,95,77,60,67,60,54,80,59,36,29.98,29.88,9,3,9,0.00
2013-7-6,92,76,66,68,62,57,74,62,45,29.99,29.88,10,3,10,0.03
2013-7-7,96,79,69,70,66,62,82,65,41,29.96,29.90,11,3,11,0.04
2013-7-8,102,87,74,73,68,62,68,53,36,30.01,29.94,6,3,6,0.00
2013-7-9,105,88,74,76,70,64,75,56,38,29.99,29.83,10,3,10,0.00
2013-7-10,98,83,69,71,66,59,73,57,36,30.02,29.89,8,2,8,0.00
2013-7-11,94,77,61,62,59,55,82,57,35,30.07,29.96,7,2,7,0.00
2013-7-12,97,78,62,69,61,54,78,58,38,30.03,29.95,8,3,8,0.00
2013-7-13,93,76,68,69,59,55,62,57,46,30.01,29.97,6,3,6,0.00
2013-7-30,82,77,70,73,70,65,89,79,72,30.05,29.98,4,1,4,0.87
2013-7-31,91,75,66,69,66,60,91,74,48,30.10,30.02,5,1,5,0.01
2013-8-1,96,76,61,70,64,56,90,69,42,30.09,29.94,4,1,4,0.00
2013-8-2,87,75,65,74,67,61,88,78,63,29.97,29.83,3,1,3,0.33
2013-8-3,86,78,71,72,69,66,85,75,60,30.10,29.91,4,2,4,0.00
2013-8-4,74,70,67,69,64,60,89,82,71,30.12,30.00,4,1,4,0.49
2013-8-5,93,77,67,76,70,65,91,80,56,30.03,29.81,5,1,5,0.00
2013-8-6,94,78,68,78,71,65,92,78,56,29.87,29.77,8,2,8,0.89
2013-8-7,91,77,68,76,70,62,91,79,61,29.94,29.77,6,1,6,0.64
2013-8-8,73,69,65,66,63,61,88,82,77,29.99,29.86,6,1,6,0.01
2013-8-9,76,69,63,68,64,59,90,84,74,30.09,29.97,2,0,2,0.01
2013-8-10,89,71,58,66,61,55,92,73,44,30.17,30.07,5,1,5,0.00
2013-8-11,92,72,56,71,62,52,89,72,50,30.12,29.99,5,1,5,0.00
2013-8-12,88,72,65,70,64,60,91,78,55,30.02,29.94,8,1,8,1.33
2013-8-13,82,70,62,64,61,57,90,73,49,30.10,30.01,4,1,4,0.00
2013-8-14,82,68,57,64,57,53,88,71,49,30.17,30.07,6,1,6,0.00
2013-8-15,77,66,60,64,58,54,80,74,59,30.10,29.99,5,1,5,0.03
2013-8-16,80,68,57,61,57,50,85,69,49,30.14,30.05,5,2,5,0.00
2013-8-17,84,65,50,60,53,45,88,68,42,30.18,30.08,8,1,8,0.00
2013-8-18,89,67,51,66,56,46,89,70,47,30.15,30.04,5,1,5,0.01
2013-8-19,89,71,56,68,61,52,91,71,48,30.09,29.98,7,1,7,0.00
2013-8-20,92,75,62,70,64,57,88,68,47,30.04,29.96,7,2,7,0.00
2013-8-21,93,76,63,72,65,58,86,70,48,30.06,29.97,5,1,5,0.00
2013-8-22,75,68,65,68,63,61,88,84,78,30.08,30.00,2,0,2,0.00
2013-8-29,98,88,74,74,71,66,87,59,41,30.02,29.92,6,2,6,0.00
2013-8-30,103,83,69,72,68,64,87,63,34,29.95,29.81,8,2,8,0.00
2013-8-31,93,81,71,76,70,65,82,69,47,29.86,29.77,4,1,4,0.00
2013-9-1,86,74,63,72,65,57,92,75,50,29.95,29.74,7,2,7,0.25
2013-9-2,85,68,57,63,58,52,88,70,47,30.04,29.94,5,1,5,0.00
2013-9-3,89,68,51,61,55,46,89,67,39,30.09,29.99,0,0,0,0.00
2013-9-4,90,69,53,67,57,48,87,69,41,30.14,30.04,0,0,0,0.00
2013-9-5,91,71,55,65,59,50,89,67,41,30.18,30.08,0,0,0,0.00
2013-9-6,92,75,61,67,62,55,87,66,43,30.11,29.96,0,0,0,0.00
2013-9-7,99,80,65,70,65,59,80,61,38,29.98,29.86,0,0,0,0.00
2013-9-8,102,86,68,70,66,61,80,54,34,29.89,29.78,0,0,0,0.00
2013-9-9,96,82,70,67,62,59,68,54,31,29.93,29.85,7,1,7,0.00
2013-9-10,96,82,67,67,63,59,76,53,35,30.05,29.88,10,2,10,0.00
2013-9-11,96,78,62,64,61,56,82,58,33,30.11,29.99,4,1,4,0.00
2013-9-12,85,74,67,69,62,49,86,67,48,30.13,30.04,4,1,4,0.02
2013-9-13,77,64,52,52,48,43,77,57,39,30.16,30.04,6,1,6,0.00
2013-9-14,82,63,46,55,48,40,83,61,39,30.09,29.93,8,2,8,0.00
2013-9-15,86,70,63,67,57,50,76,64,52,30.12,29.91,5,2,5,0.01
2013-9-16,63,60,58,57,55,54,87,84,80,30.24,30.12,9,3,9,0.32
2013-9-17,74,65,60,67,60,56,91,85,77,30.16,29.95,8,2,8,0.69
2013-9-18,89,75,65,73,66,62,91,75,54,29.96,29.79,8,3,8,0.00
2013-9-19,92,76,65,70,65,61,87,70,43,29.91,29.71,13,3,13,2.05
2013-9-20,70,62,50,61,51,44,88,70,49,30.04,29.90,6,1,6,0.00
2013-9-21,75,57,43,53,46,39,89,70,41,30.03,29.89,3,0,3,0.01
2013-9-22,77,59,46,56,48,41,89,69,45,29.97,29.84,6,2,6,0.01
2013-9-23,77,61,47,55,50,42,87,68,46,29.91,29.76,10,3,10,0.00
2013-9-24,69,63,55,58,54,50,83,72,66,29.83,29.74,7,2,7,0.00
2013-9-25,79,64,50,64,55,46,90,76,57,29.88,29.79,0,0,0,0.00
2013-9-26,84,68,56,63,57,52,89,71,48,29.89,29.81,11,2,11,0.01
2013-9-27,85,73,64,66,60,57,79,65,48,29.94,29.83,10,4,10,0.00
2013-9-28,70,62,48,62,55,44,86,77,67,30.06,29.78,8,2,8,0.47
2013-9-29,74,56,42,56,47,38,91,73,49,30.09,29.93,3,1,3,0.01
2013-9-30,78,59,42,61,50,38,91,75,54,29.94,29.79,10,1,10,0.00
2013-10-1,83,65,51,68,58,47,91,78,58,29.94,29.82,4,1,4,0.01
2013-10-2,83,68,56,70,61,52,92,81,61,29.99,29.85,6,1,6,0.01
2013-10-3,84,71,64,72,64,59,88,81,63,29.88,29.71,10,3,10,0.09
2013-10-4,86,74,65,71,65,59,88,74,52,29.86,29.71,10,4,10,0.50
2013-10-5,64,53,42,59,40,35,84,62,46,30.02,29.88,7,2,7,0.00
2013-10-6,60,49,40,43,38,32,76,66,52,29.98,29.84,9,3,9,0.00
2013-10-7,72,52,37,51,41,32,87,69,45,30.12,29.98,4,1,4,0.00
2013-10-8,75,57,43,52,45,38,87,66,43,30.08,29.99,10,2,10,0.00
2013-10-9,75,58,47,53,46,41,82,68,45,30.08,29.98,6,2,6,0.00
2013-10-10,65,51,44,52,44,39,89,78,60,30.04,29.84,6,1,6,0.00
2013-10-11,75,64,54,64,56,48,83,76,67,29.86,29.75,12,4,12,0.00
2013-10-12,68,56,43,55,44,36,80,64,42,30.23,29.82,4,1,4,0.00
2013-10-13,68,50,36,44,38,31,88,65,40,30.37,30.23,10,1,10,0.00
2013-10-14,67,56,43,55,45,36,83,67,50,30.26,29.85,13,4,13,0.03
2013-10-15,60,53,42,54,43,34,87,71,52,30.05,29.84,10,3,10,0.12
2013-10-16,58,48,40,43,38,33,79,69,52,30.09,29.96,5,2,5,0.01
2013-10-17,65,50,36,45,39,32,86,69,36,30.00,29.87,9,2,9,0.00
2013-10-18,45,38,33,36,33,28,87,80,70,30.12,30.01,4,1,4,0.20
2013-10-19,60,43,32,41,34,28,88,74,44,30.08,29.87,6,2,6,0.01
2013-10-20,69,53,42,46,40,35,78,65,43,29.90,29.76,9,2,9,0.00
2013-10-21,54,45,34,41,33,27,80,65,45,30.10,29.91,5,1,5,0.00
2013-10-22,60,48,36,44,36,28,78,65,49,30.08,29.89,7,2,7,0.00
2013-10-23,53,41,29,36,31,23,83,69,52,30.14,30.01,4,1,4,0.00
2013-10-24,50,40,27,33,28,20,79,64,43,30.40,30.14,6,1,6,0.00
2013-10-25,56,38,22,32,25,16,84,62,39,30.43,30.13,12,2,12,0.00
2013-10-26,59,46,31,40,33,23,78,60,39,30.15,30.05,5,2,5,0.00
2013-10-27,62,40,24,36,27,18,84,63,38,30.14,29.91,10,1,10,0.00
2013-10-28,67,46,30,53,38,24,85,73,57,30.11,29.96,6,1,6,0.00
2013-10-29,61,55,47,59,52,42,92,89,83,30.09,29.90,4,2,4,1.24
2013-10-30,67,64,60,63,60,57,93,90,79,29.93,29.70,12,4,12,1.01
2013-10-31,60,49,40,58,45,36,91,87,75,29.71,29.55,9,1,9,0.95
2013-11-1,58,47,38,42,38,34,89,72,50,29.96,29.63,8,2,8,0.02
2013-11-2,54,44,32,37,33,26,81,67,45,30.17,29.96,9,3,9,0.00
2013-11-3,59,44,29,41,34,24,86,68,49,30.14,29.88,14,4,14,0.00
2013-11-4,59,53,47,48,44,39,79,72,62,30.07,29.86,10,4,10,0.07
2013-11-5,58,55,45,55,51,40,91,87,79,30.07,29.83,11,4,11,0.56
2013-11-6,45,38,29,40,32,25,88,81,66,30.30,29.92,10,3,10,0.13
2013-11-7,54,36,26,37,28,22,90,74,46,30.36,30.29,11,2,11,0.01
2013-11-8,63,46,27,41,32,22,83,62,37,30.29,29.86,13,4,13,0.00
2013-11-9,64,47,34,42,34,27,88,62,34,30.27,29.94,5,1,5,0.00
2013-11-10,71,45,30,38,32,25,84,63,28,30.39,30.18,6,1,6,0.00
2013-11-11,59,45,27,48,36,17,79,70,61,30.60,30.13,11,3,11,0.01
2013-11-12,33,23,16,16,12,8,74,63,44,30.84,30.62,6,2,6,0.00
2013-11-13,48,30,14,21,16,8,78,57,34,30.64,30.14,9,3,9,0.00
2013-11-14,54,43,34,30,25,21,61,51,39,30.13,29.91,12,6,12,0.00
2013-11-15,58,47,36,42,35,25,78,63,53,29.94,29.70,7,4,7,0.00
2013-11-16,68,60,48,57,53,41,84,76,65,29.71,29.39,16,8,16,0.01
2013-11-17,64,58,44,57,39,21,81,53,21,30.06,29.32,13,6,13,0.04
2013-11-18,56,39,29,34,27,22,80,63,37,30.27,30.06,5,1,5,0.00
2013-11-19,59,44,27,33,27,21,78,55,34,30.22,29.95,13,6,13,0.00
2013-11-20,49,45,41,38,32,22,72,60,38,29.95,29.84,11,4,11,0.08
2013-11-21,47,40,27,42,34,22,86,81,72,30.40,29.93,8,3,8,0.11
2013-11-22,30,26,22,23,20,16,83,78,75,30.58,30.40,9,3,9,0.00
2013-11-23,28,23,14,18,12,5,79,64,50,30.74,30.57,9,2,9,0.00
2013-11-24,30,21,10,15,10,3,74,62,52,30.71,30.29,8,2,8,0.00
2013-11-25,39,30,20,21,16,12,72,58,47,30.29,30.13,7,2,7,0.00
2013-11-26,36,25,17,22,15,8,85,66,45,30.37,30.13,8,2,8,0.00
2013-11-27,32,21,10,14,9,2,75,59,44,30.40,30.14,6,2,6,0.00
2013-11-28,39,28,19,23,16,10,69,60,51,30.45,30.12,6,2,6,0.00
2013-11-29,50,30,16,32,20,10,77,66,48,30.45,30.21,9,2,9,0.00
2013-11-30,53,37,24,37,27,17,76,67,54,30.20,30.04,8,2,8,0.00
2013-12-1,54,35,22,39,26,16,85,73,55,30.09,29.86,3,1,3,0.00
2013-12-2,52,39,29,42,33,23,88,78,68,29.85,29.58,7,2,7,0.00
2013-12-3,59,42,30,47,35,26,91,79,63,29.58,29.50,6,2,6,0.00
2013-12-4,40,32,22,35,27,12,89,81,64,30.01,29.49,10,3,10,0.04
2013-12-5,21,17,14,12,8,4,80,66,61,30.35,30.02,8,4,8,0.00
2013-12-6,18,14,9,6,1,-2,63,57,48,30.61,30.34,8,3,8,0.00
2013-12-7,21,13,4,6,1,-4,69,59,51,30.69,30.34,7,2,7,0.01
2013-12-8,24,20,18,17,12,5,82,71,54,30.33,29.95,7,2,7,0.00
2013-12-9,18,10,5,13,3,-2,81,72,61,30.38,30.15,6,2,6,0.01
2013-12-10,36,21,7,21,11,1,73,65,53,30.30,30.16,6,2,6,0.02
2013-12-11,25,18,6,16,8,-2,79,64,50,30.59,30.19,8,2,8,0.00
2013-12-12,43,25,6,21,12,-2,71,59,39,30.57,30.15,10,3,10,0.00
2013-12-13,37,32,22,31,26,15,86,79,68,30.13,29.82,8,2,8,0.10
2013-12-14,34,25,18,30,20,12,87,81,73,30.20,29.87,8,3,8,0.00
2013-12-15,47,30,13,33,22,8,85,71,55,30.19,29.93,7,2,7,0.02
2013-12-16,56,36,22,32,24,16,80,64,40,30.12,29.93,6,1,6,0.00
2013-12-17,44,28,18,29,18,12,83,67,45,30.27,30.13,8,2,8,0.00
2013-12-18,20,20,19,13,12,12,75,74,72,30.19,30.15,0,0,0,0.00
2013-12-30,29,23,14,12,9,4,65,55,44,30.25,30.13,6,3,6,0.00
2013-12-31,47,28,12,28,17,5,81,63,45,30.29,30.01,13,3,13,0.00
2014-1-1,30,20,9,20,12,2,77,71,63,30.28,29.99,9,3,9,0.00
2014-1-2,17,7,0,5,-2,-8,75,67,55,30.45,30.29,6,2,6,0.01